LRBC - BACAU/GEORGE ENESCU

Compiled: 11:34:26 on 21/04/2018

Latest METAR/SPECI Reports

METAR LRBC 211130Z 16007KT 110V190 CAVOK 24/05 Q1017=

Previous reports

METAR LRBC 211100Z 14005KT 090V220 CAVOK 23/06 Q1017=
METAR LRBC 211030Z VRB04KT CAVOK 23/05 Q1018=
METAR LRBC 211000Z 16005KT 100V200 CAVOK 22/05 Q1018=
METAR LRBC 210930Z 15005KT CAVOK 21/08 Q1019=

Latest TAF report

TAF LRBC 211100Z 2112/2121 16005KT CAVOK=

Valid WARNINGS

No valid warnings for LRBC